Time;durP1;ratioP1;P1;durP2;ratioP2;P2;SDS_P1;SDS_P2;PMS_P1;PMS_P2;Temp;Humidity;BMP_temperature;BMP_pressure;BME280_temperature;BME280_humidity;BME280_pressure;Samples;Min_cycle;Max_cycle;Signal;HPM_P1;HPM_P2
2023/08/01 00:00:08;;;;;;;15.63;5.78;;;16.40;99.90;;;;;;5052277;28;20051;-78
2023/08/01 00:02:34;;;;;;;13.00;5.88;;;16.40;99.90;;;;;;5034984;28;20052;-77
2023/08/01 00:05:00;;;;;;;15.17;5.57;;;16.40;99.90;;;;;;5050794;28;20110;-77
2023/08/01 00:07:28;;;;;;;16.00;5.47;;;16.50;99.90;;;;;;5051426;28;20303;-78
2023/08/01 00:09:53;;;;;;;15.45;4.97;;;16.40;99.90;;;;;;5051720;28;20501;-75
2023/08/01 00:12:19;;;;;;;12.27;4.75;;;16.40;99.90;;;;;;5052097;28;20080;-80
2023/08/01 00:14:45;;;;;;;16.07;5.87;;;16.40;99.90;;;;;;5067533;28;20049;-78
2023/08/01 00:17:10;;;;;;;19.38;5.60;;;16.40;99.90;;;;;;5051370;28;20048;-80
2023/08/01 00:19:36;;;;;;;13.50;5.47;;;16.40;99.90;;;;;;5051018;28;20485;-77
2023/08/01 00:22:02;;;;;;;15.85;5.40;;;16.40;99.90;;;;;;5050450;28;20055;-78
2023/08/01 00:24:28;;;;;;;12.60;5.57;;;16.30;99.90;;;;;;5052971;28;20045;-78
2023/08/01 00:26:56;;;;;;;13.02;5.30;;;16.30;99.90;;;;;;5054445;28;20122;-76
2023/08/01 00:29:22;;;;;;;15.50;5.20;;;16.40;99.90;;;;;;5055067;28;20061;-78
2023/08/01 00:31:48;;;;;;;16.58;5.32;;;16.30;99.90;;;;;;5074033;28;20448;-78
2023/08/01 00:34:14;;;;;;;18.20;5.43;;;16.30;99.90;;;;;;5056607;28;20048;-78
2023/08/01 00:36:39;;;;;;;15.77;5.03;;;16.30;99.90;;;;;;5057508;28;20048;-79
2023/08/01 00:39:05;;;;;;;13.57;5.17;;;16.30;99.90;;;;;;5056198;28;20409;-77
2023/08/01 00:41:31;;;;;;;19.13;5.20;;;16.20;99.90;;;;;;5055076;28;20049;-76
2023/08/01 00:43:56;;;;;;;12.87;4.80;;;16.20;99.90;;;;;;5054332;28;20045;-76
2023/08/01 00:46:22;;;;;;;13.53;4.90;;;16.20;99.90;;;;;;5057777;28;20044;-78
2023/08/01 00:48:48;;;;;;;16.73;4.80;;;16.20;99.90;;;;;;5055863;28;20052;-77
2023/08/01 00:51:15;;;;;;;12.53;4.90;;;16.20;99.90;;;;;;5055303;28;20087;-78
2023/08/01 00:53:41;;;;;;;15.32;4.57;;;16.20;99.90;;;;;;5055550;28;20044;-77
2023/08/01 00:56:07;;;;;;;13.10;4.43;;;16.30;99.90;;;;;;5054914;28;20062;-78
2023/08/01 00:58:32;;;;;;;16.70;4.30;;;16.20;99.90;;;;;;5056945;28;20084;-78
2023/08/01 01:00:59;;;;;;;12.90;3.63;;;16.20;99.90;;;;;;5057484;28;20056;-78
2023/08/01 01:03:25;;;;;;;10.77;3.95;;;16.20;99.90;;;;;;5056805;28;20436;-77
2023/08/01 01:06:15;;;;;;;11.18;3.80;;;16.20;99.90;;;;;;5056202;28;20052;-78
2023/08/01 01:08:41;;;;;;;14.18;4.88;;;16.20;99.90;;;;;;5054778;28;20060;-78
2023/08/01 01:11:07;;;;;;;11.40;4.03;;;16.30;99.90;;;;;;5054888;28;20107;-78
2023/08/01 01:13:33;;;;;;;16.47;4.27;;;16.20;99.90;;;;;;5055523;28;20084;-76
2023/08/01 01:15:59;;;;;;;16.00;4.50;;;16.20;99.90;;;;;;5053644;28;20095;-76
2023/08/01 01:18:25;;;;;;;16.00;3.90;;;16.20;99.90;;;;;;5055064;28;20075;-77
2023/08/01 01:20:51;;;;;;;10.77;3.80;;;16.20;99.90;;;;;;5054578;28;20511;-78
2023/08/01 01:23:19;;;;;;;10.40;3.95;;;16.20;99.90;;;;;;5054540;28;20048;-75
2023/08/01 01:25:46;;;;;;;13.52;4.43;;;16.20;99.90;;;;;;5070598;28;20045;-77
2023/08/01 01:28:14;;;;;;;11.07;3.90;;;16.10;99.90;;;;;;5052837;28;20057;-77
2023/08/01 01:30:41;;;;;;;12.95;4.53;;;16.10;99.90;;;;;;5070804;28;20057;-77
2023/08/01 01:33:09;;;;;;;14.23;4.30;;;16.10;99.90;;;;;;5070113;28;20088;-77
2023/08/01 01:35:35;;;;;;;13.35;4.55;;;16.10;99.90;;;;;;5036434;28;20053;-78
2023/08/01 01:38:03;;;;;;;11.50;4.22;;;16.00;99.90;;;;;;5054731;28;20045;-76
2023/08/01 01:40:32;;;;;;;12.80;3.70;;;16.10;99.90;;;;;;5055318;28;20615;-77
2023/08/01 01:42:59;;;;;;;11.35;4.22;;;16.00;99.90;;;;;;5054539;28;20052;-79
2023/08/01 01:45:26;;;;;;;10.65;4.30;;;15.90;99.90;;;;;;5054294;28;20127;-80
2023/08/01 01:47:52;;;;;;;16.98;4.78;;;15.80;99.90;;;;;;5054292;28;20568;-80
2023/08/01 01:50:18;;;;;;;13.90;3.90;;;15.80;99.90;;;;;;5052767;28;20501;-78
2023/08/01 01:52:44;;;;;;;14.45;4.00;;;15.70;99.90;;;;;;5054400;28;20051;-81
2023/08/01 01:55:10;;;;;;;13.85;4.57;;;15.60;99.90;;;;;;5054097;28;20429;-77
2023/08/01 01:57:36;;;;;;;13.73;4.43;;;15.50;99.90;;;;;;5053001;28;20077;-79
2023/08/01 02:00:06;;;;;;;12.25;4.47;;;15.50;99.90;;;;;;5052843;28;20056;-78
2023/08/01 02:02:31;;;;;;;15.73;4.38;;;15.50;99.90;;;;;;5053936;28;20427;-81
2023/08/01 02:04:57;;;;;;;10.40;4.18;;;15.40;99.90;;;;;;5055216;28;20132;-80
2023/08/01 02:07:23;;;;;;;15.43;4.30;;;15.40;99.90;;;;;;5055194;28;20128;-82
2023/08/01 02:09:49;;;;;;;11.07;4.22;;;15.30;99.90;;;;;;5054819;28;20102;-83
2023/08/01 02:12:14;;;;;;;17.05;4.47;;;15.30;99.90;;;;;;5055234;28;20045;-83
2023/08/01 02:14:41;;;;;;;16.20;4.53;;;15.30;99.90;;;;;;5057017;28;20051;-82
2023/08/01 02:17:07;;;;;;;15.68;4.85;;;15.40;99.90;;;;;;5056345;28;20123;-83
2023/08/01 02:19:33;;;;;;;17.40;5.10;;;15.40;99.90;;;;;;5056456;28;20045;-81
2023/08/01 02:21:59;;;;;;;13.32;4.25;;;15.50;99.90;;;;;;5057028;28;20336;-81
2023/08/01 02:24:25;;;;;;;12.43;4.40;;;15.40;99.90;;;;;;5054634;28;20045;-81
2023/08/01 02:26:51;;;;;;;15.27;4.80;;;15.50;99.90;;;;;;5054760;28;20049;-84
2023/08/01 02:29:17;;;;;;;14.00;4.32;;;15.50;99.90;;;;;;5054755;28;20049;-81
2023/08/01 02:31:42;;;;;;;12.45;4.43;;;15.50;99.90;;;;;;5060759;28;20052;-82
2023/08/01 02:34:08;;;;;;;15.82;4.60;;;15.50;99.90;;;;;;5060897;28;20052;-80
2023/08/01 02:36:34;;;;;;;11.02;4.15;;;15.50;99.90;;;;;;5059452;28;20052;-83
2023/08/01 02:39:00;;;;;;;14.85;4.38;;;15.50;99.90;;;;;;5058890;28;20045;-79
2023/08/01 02:41:25;;;;;;;16.65;4.03;;;15.50;99.90;;;;;;5054343;28;20532;-81
2023/08/01 02:43:51;;;;;;;13.75;4.07;;;15.50;99.90;;;;;;5054220;28;20124;-82
2023/08/01 02:46:17;;;;;;;13.85;4.60;;;15.50;99.90;;;;;;5039236;28;20040;-80
2023/08/01 02:48:43;;;;;;;14.18;4.95;;;15.40;99.90;;;;;;5057776;28;20049;-84
2023/08/01 02:51:09;;;;;;;17.35;5.20;;;15.40;99.90;;;;;;5055447;28;20500;-83
2023/08/01 02:53:40;;;;;;;15.02;4.80;;;15.40;99.90;;;;;;5054993;28;20084;-81
2023/08/01 02:56:07;;;;;;;15.35;5.20;;;15.30;99.90;;;;;;5054228;28;20049;-80
2023/08/01 02:58:33;;;;;;;15.15;4.75;;;15.30;99.90;;;;;;5053493;28;20053;-81
2023/08/01 03:00:58;;;;;;;16.92;4.85;;;15.20;99.90;;;;;;5054189;28;20068;-81
2023/08/01 03:03:24;;;;;;;15.25;4.70;;;15.10;99.90;;;;;;5053785;28;20045;-81
2023/08/01 03:05:50;;;;;;;18.05;4.97;;;15.10;99.90;;;;;;5053445;28;20131;-82
2023/08/01 03:08:15;;;;;;;19.63;5.03;;;15.10;99.90;;;;;;5054060;28;20103;-81
2023/08/01 03:10:41;;;;;;;14.35;4.43;;;15.00;99.90;;;;;;5036380;28;20045;-81
2023/08/01 03:13:07;;;;;;;17.27;4.93;;;15.00;99.90;;;;;;5036863;28;20049;-79
2023/08/01 03:15:32;;;;;;;15.43;5.07;;;15.00;99.90;;;;;;5035881;28;20412;-81
2023/08/01 03:17:58;;;;;;;17.42;4.63;;;14.90;99.90;;;;;;5052670;28;20048;-80
2023/08/01 03:20:24;;;;;;;15.75;4.25;;;14.90;99.90;;;;;;5053925;28;20056;-82
2023/08/01 03:22:50;;;;;;;13.02;4.35;;;14.90;99.90;;;;;;5054007;28;20056;-82
2023/08/01 03:25:16;;;;;;;12.65;4.63;;;15.00;99.90;;;;;;5053809;28;20049;-81
2023/08/01 03:27:41;;;;;;;13.25;4.20;;;15.00;99.90;;;;;;5054056;28;20127;-82
2023/08/01 03:30:08;;;;;;;18.23;4.82;;;15.00;99.90;;;;;;5054979;28;20134;-80
2023/08/01 03:32:36;;;;;;;18.08;4.43;;;15.10;99.90;;;;;;5052720;28;20056;-83
2023/08/01 03:35:03;;;;;;;20.02;4.65;;;15.00;99.90;;;;;;5054714;28;20048;-83
2023/08/01 03:37:29;;;;;;;;;;;15.10;99.90;;;;;;5054695;28;20048;-82
2023/08/01 03:39:55;;;;;;;17.43;4.33;;;15.10;99.90;;;;;;5055104;28;20011;-81
2023/08/01 03:42:20;;;;;;;18.10;3.95;;;15.10;99.90;;;;;;5054542;28;20481;-79
2023/08/01 03:44:46;;;;;;;20.55;4.50;;;15.10;99.90;;;;;;5052895;28;20051;-81
2023/08/01 03:47:12;;;;;;;15.57;4.13;;;15.10;99.90;;;;;;5053777;28;20490;-80
2023/08/01 03:49:38;;;;;;;16.83;4.00;;;15.20;99.90;;;;;;5053827;28;20055;-74
2023/08/01 03:52:05;;;;;;;22.38;4.57;;;15.20;99.90;;;;;;5052176;28;20057;-73
2023/08/01 03:54:31;;;;;;;;;;;15.20;99.90;;;;;;5086150;28;20053;-73
2023/08/01 03:56:56;;;;;;;15.00;4.20;;;15.20;99.90;;;;;;5052633;28;19928;-75
2023/08/01 03:59:23;;;;;;;11.27;3.13;;;15.20;99.90;;;;;;5037483;28;20052;-74
2023/08/01 04:01:48;;;;;;;11.50;2.72;;;15.20;99.90;;;;;;5057183;28;20113;-73
2023/08/01 04:04:14;;;;;;;10.65;3.00;;;15.20;99.90;;;;;;5055814;28;20128;-73
2023/08/01 04:06:40;;;;;;;9.15;2.50;;;15.10;99.90;;;;;;5056959;28;20048;-75
2023/08/01 04:09:06;;;;;;;7.85;2.00;;;15.10;99.90;;;;;;5057081;28;20102;-73
2023/08/01 04:11:32;;;;;;;9.55;1.90;;;15.00;99.90;;;;;;5055811;28;20052;-74
2023/08/01 04:13:58;;;;;;;8.02;1.63;;;15.00;99.90;;;;;;5055738;28;20486;-73
2023/08/01 04:16:23;;;;;;;7.88;1.85;;;15.00;99.90;;;;;;5056571;28;20048;-74
2023/08/01 04:18:49;;;;;;;8.07;1.88;;;14.90;99.90;;;;;;5055386;28;20047;-76
2023/08/01 04:21:16;;;;;;;9.50;2.13;;;14.90;99.90;;;;;;5038810;28;20147;-75
2023/08/01 04:23:42;;;;;;;8.85;1.83;;;14.90;99.90;;;;;;5055541;28;20473;-74
2023/08/01 04:26:07;;;;;;;11.82;1.65;;;14.80;99.90;;;;;;5056726;28;20049;-75
2023/08/01 04:28:34;;;;;;;3.70;1.15;;;14.90;99.90;;;;;;5056521;28;20167;-74
2023/08/01 04:31:00;;;;;;;10.00;1.83;;;14.80;99.90;;;;;;5056574;28;20049;-74
2023/08/01 04:33:25;;;;;;;6.63;1.55;;;14.90;99.90;;;;;;5055412;28;20064;-74
2023/08/01 04:35:51;;;;;;;4.70;1.10;;;14.90;99.90;;;;;;5055414;28;20136;-75
2023/08/01 04:38:17;;;;;;;5.50;1.20;;;14.80;99.90;;;;;;5056891;28;20456;-73
2023/08/01 04:40:43;;;;;;;9.80;1.15;;;14.80;99.90;;;;;;5055212;28;20140;-74
2023/08/01 04:43:09;;;;;;;7.50;1.35;;;14.80;99.90;;;;;;5056333;28;20131;-74
2023/08/01 04:45:35;;;;;;;9.03;1.57;;;14.80;99.90;;;;;;5056375;28;20045;-75
2023/08/01 04:48:01;;;;;;;8.10;1.77;;;14.80;99.90;;;;;;5055306;28;20859;-75
2023/08/01 04:50:26;;;;;;;5.85;1.50;;;14.90;99.90;;;;;;5056273;28;20053;-74
2023/08/01 04:52:52;;;;;;;5.90;1.52;;;14.90;99.90;;;;;;5056424;28;20048;-76
2023/08/01 04:55:18;;;;;;;6.63;1.98;;;15.00;99.90;;;;;;5056951;28;20045;-75
2023/08/01 04:57:43;;;;;;;7.05;1.60;;;15.10;99.90;;;;;;5056655;28;20397;-74
2023/08/01 05:00:10;;;;;;;6.18;1.50;;;15.10;99.90;;;;;;5038838;28;20048;-75
2023/08/01 05:02:36;;;;;;;5.80;1.25;;;15.20;99.90;;;;;;5056086;28;20486;-75
2023/08/01 05:05:02;;;;;;;6.28;1.45;;;15.20;99.90;;;;;;5055121;28;20168;-77
2023/08/01 05:07:27;;;;;;;6.20;1.20;;;15.30;99.90;;;;;;5054771;28;20048;-77
2023/08/01 05:09:53;;;;;;;5.40;1.13;;;15.30;99.90;;;;;;5054550;28;20132;-78
2023/08/01 05:12:19;;;;;;;5.85;0.85;;;15.30;99.90;;;;;;5054009;28;20213;-75
2023/08/01 05:14:45;;;;;;;6.03;1.27;;;15.30;99.90;;;;;;5054708;28;20041;-76
2023/08/01 05:17:10;;;;;;;6.80;1.23;;;15.30;99.90;;;;;;5055047;28;20393;-76
2023/08/01 05:19:36;;;;;;;4.97;1.10;;;15.40;99.90;;;;;;5054690;28;20080;-77
2023/08/01 05:22:02;;;;;;;7.05;1.38;;;15.50;99.90;;;;;;5054928;28;20067;-77
2023/08/01 05:24:28;;;;;;;5.38;1.48;;;15.50;99.90;;;;;;5055768;28;20481;-77
2023/08/01 05:26:53;;;;;;;5.15;1.25;;;15.40;99.90;;;;;;5054380;28;20052;-76
2023/08/01 05:29:19;;;;;;;5.82;1.48;;;15.40;99.90;;;;;;5054327;28;20057;-73
2023/08/01 05:31:45;;;;;;;6.47;1.50;;;15.40;99.90;;;;;;5055413;28;20075;-76
2023/08/01 05:34:10;;;;;;;6.03;1.38;;;15.40;99.90;;;;;;5038225;28;20098;-74
2023/08/01 05:36:36;;;;;;;7.50;1.45;;;15.30;99.90;;;;;;5054779;28;20041;-75
2023/08/01 05:39:03;;;;;;;8.17;1.40;;;15.30;99.90;;;;;;5055433;28;20083;-74
2023/08/01 05:41:29;;;;;;;6.70;1.65;;;15.40;99.90;;;;;;5055335;28;20056;-74
2023/08/01 05:43:55;;;;;;;5.28;1.75;;;15.40;99.90;;;;;;5054337;28;20071;-74
2023/08/01 05:46:21;;;;;;;6.30;1.60;;;15.40;99.90;;;;;;5055238;28;20049;-74
2023/08/01 05:48:46;;;;;;;5.88;1.50;;;15.30;99.90;;;;;;5055009;28;20401;-72
2023/08/01 05:51:12;;;;;;;5.88;1.50;;;15.30;99.90;;;;;;5037547;28;20045;-74
2023/08/01 05:53:38;;;;;;;6.65;1.42;;;15.30;99.90;;;;;;5037601;28;20202;-73
2023/08/01 05:56:04;;;;;;;6.55;1.40;;;15.20;99.90;;;;;;5054757;28;20450;-74
2023/08/01 05:58:30;;;;;;;7.40;1.33;;;15.20;99.90;;;;;;5055119;28;20067;-75
2023/08/01 06:00:57;;;;;;;7.13;1.45;;;15.10;99.90;;;;;;5053909;28;20053;-74
2023/08/01 06:03:22;;;;;;;7.87;1.50;;;15.10;99.90;;;;;;5036984;28;20048;-74
2023/08/01 06:05:49;;;;;;;7.55;1.50;;;15.10;99.90;;;;;;5053464;28;20833;-73
2023/08/01 06:08:15;;;;;;;5.53;1.35;;;15.10;99.90;;;;;;5054595;28;20048;-73
2023/08/01 06:10:42;;;;;;;9.82;1.90;;;15.10;99.90;;;;;;5054666;28;20044;-78
2023/08/01 06:13:08;;;;;;;6.22;1.58;;;15.10;99.90;;;;;;5054645;28;20144;-74
2023/08/01 06:15:34;;;;;;;10.63;1.42;;;15.10;99.90;;;;;;5053144;28;20055;-78
2023/08/01 06:18:00;;;;;;;9.15;1.95;;;15.20;99.90;;;;;;5054430;28;20127;-74
2023/08/01 06:20:26;;;;;;;10.38;1.88;;;15.30;99.90;;;;;;5055496;28;20044;-73
2023/08/01 06:22:52;;;;;;;6.00;1.67;;;15.40;99.90;;;;;;5053228;28;20036;-74
2023/08/01 06:25:18;;;;;;;6.80;1.77;;;15.50;99.90;;;;;;5053556;28;20052;-74
2023/08/01 06:27:43;;;;;;;6.63;1.63;;;15.50;99.90;;;;;;5054913;28;20056;-75
2023/08/01 06:30:10;;;;;;;8.13;2.13;;;15.60;99.90;;;;;;5054424;28;20203;-74
2023/08/01 06:32:36;;;;;;;7.40;1.90;;;15.80;99.90;;;;;;5054240;28;20378;-74
2023/08/01 06:35:02;;;;;;;5.28;1.52;;;15.80;99.90;;;;;;5053412;28;20057;-75
2023/08/01 06:37:27;;;;;;;7.10;1.35;;;15.90;99.90;;;;;;5054814;28;20056;-76
2023/08/01 06:39:55;;;;;;;4.03;1.30;;;16.00;99.90;;;;;;5054180;28;20102;-79
2023/08/01 06:42:21;;;;;;;5.88;1.50;;;16.00;99.90;;;;;;5054772;28;20045;-77
2023/08/01 06:44:46;;;;;;;5.75;1.05;;;16.00;99.90;;;;;;5054680;28;20054;-77
2023/08/01 06:47:12;;;;;;;4.05;1.20;;;16.00;99.90;;;;;;5053110;28;20386;-77
2023/08/01 06:49:38;;;;;;;7.28;1.50;;;16.00;99.90;;;;;;5053093;28;20045;-79
2023/08/01 06:52:04;;;;;;;8.02;1.40;;;16.10;99.90;;;;;;5053056;28;20045;-79
2023/08/01 06:54:31;;;;;;;6.78;1.55;;;16.20;99.90;;;;;;5054106;28;20076;-78
2023/08/01 06:56:59;;;;;;;7.85;1.90;;;16.10;99.90;;;;;;5036365;28;20051;-76
2023/08/01 06:59:24;;;;;;;9.38;2.58;;;16.20;99.90;;;;;;5053528;28;20049;-83
2023/08/01 07:01:50;;;;;;;8.88;2.58;;;16.20;99.90;;;;;;5052775;28;20110;-78
2023/08/01 07:04:16;;;;;;;11.65;3.05;;;16.20;99.90;;;;;;5054517;28;20465;-79
2023/08/01 07:06:41;;;;;;;9.88;2.88;;;16.20;99.90;;;;;;5053480;28;20033;-78
2023/08/01 07:09:07;;;;;;;11.10;2.97;;;16.30;99.90;;;;;;5053481;28;20044;-77
2023/08/01 07:11:33;;;;;;;8.98;2.67;;;16.40;99.90;;;;;;5069657;28;20045;-74
2023/08/01 07:13:59;;;;;;;9.20;2.17;;;16.40;99.90;;;;;;5053758;28;20049;-73
2023/08/01 07:16:25;;;;;;;7.45;2.72;;;16.40;99.90;;;;;;5053767;28;20472;-74
2023/08/01 07:18:50;;;;;;;7.15;2.22;;;16.50;99.90;;;;;;5052428;28;20511;-77
2023/08/01 07:21:17;;;;;;;7.90;2.05;;;16.60;99.90;;;;;;5053703;28;20056;-78
2023/08/01 07:23:43;;;;;;;11.25;2.55;;;16.70;99.90;;;;;;5052283;28;20045;-76
2023/08/01 07:26:09;;;;;;;6.73;1.97;;;17.00;99.90;;;;;;5052419;28;20064;-82
2023/08/01 07:28:35;;;;;;;6.82;1.98;;;17.30;99.90;;;;;;5035625;28;20065;-78
2023/08/01 07:31:04;;;;;;;6.67;1.60;;;17.50;99.90;;;;;;5052554;28;20052;-78
2023/08/01 07:33:29;;;;;;;5.47;1.48;;;17.60;99.90;;;;;;5053130;28;20280;-76
2023/08/01 07:35:55;;;;;;;7.20;1.65;;;17.80;99.90;;;;;;5053748;28;20511;-81
2023/08/01 07:38:21;;;;;;;8.32;2.42;;;17.80;99.90;;;;;;5053694;28;20401;-79
2023/08/01 07:40:47;;;;;;;9.52;1.45;;;17.80;99.90;;;;;;5054151;28;20045;-79
2023/08/01 07:43:12;;;;;;;9.75;1.73;;;17.90;99.90;;;;;;5055348;28;20045;-79
2023/08/01 07:45:39;;;;;;;8.37;1.60;;;18.10;99.90;;;;;;5053784;28;20075;-79
2023/08/01 07:48:05;;;;;;;5.65;1.40;;;18.20;99.90;;;;;;5052826;28;20052;-80
2023/08/01 07:50:31;;;;;;;7.07;1.70;;;18.20;99.90;;;;;;5053283;28;20056;-76
2023/08/01 07:52:57;;;;;;;7.75;1.70;;;18.00;99.90;;;;;;5052380;28;20045;-80
2023/08/01 07:55:23;;;;;;;10.40;1.55;;;17.90;99.90;;;;;;5052921;28;20163;-80
2023/08/01 07:57:49;;;;;;;8.10;1.50;;;17.70;99.90;;;;;;5052513;28;20080;-78
2023/08/01 08:00:15;;;;;;;7.20;1.60;;;17.50;99.90;;;;;;5053160;28;20128;-77
2023/08/01 08:02:45;;;;;;;9.03;1.77;;;17.30;99.90;;;;;;5053141;28;20147;-78
2023/08/01 08:05:11;;;;;;;12.50;1.88;;;17.20;99.90;;;;;;5053044;28;20282;-74
2023/08/01 08:07:37;;;;;;;7.43;2.13;;;17.00;99.90;;;;;;5053057;28;20041;-72
2023/08/01 08:10:04;;;;;;;4.53;1.30;;;16.90;99.90;;;;;;5053000;28;20051;-73
2023/08/01 08:12:30;;;;;;;7.53;1.45;;;16.80;99.90;;;;;;5052350;28;20072;-74
2023/08/01 08:14:56;;;;;;;7.88;1.77;;;16.70;99.90;;;;;;5052071;28;20049;-72
2023/08/01 08:17:25;;;;;;;8.77;1.80;;;16.60;99.90;;;;;;5053023;28;20041;-73
2023/08/01 08:19:50;;;;;;;7.45;2.13;;;16.50;99.90;;;;;;5051646;28;20045;-74
2023/08/01 08:22:16;;;;;;;7.05;1.80;;;16.50;99.90;;;;;;5052959;28;20095;-74
2023/08/01 08:24:42;;;;;;;11.75;2.33;;;16.50;99.90;;;;;;5052563;28;20041;-74
2023/08/01 08:27:08;;;;;;;10.85;2.22;;;16.50;99.90;;;;;;5052873;28;20041;-73
2023/08/01 08:29:33;;;;;;;10.15;1.92;;;16.50;99.90;;;;;;5051778;28;20148;-74
2023/08/01 08:31:59;;;;;;;8.48;2.40;;;16.60;99.90;;;;;;5051643;28;20432;-72
2023/08/01 08:34:25;;;;;;;10.70;2.27;;;16.60;99.90;;;;;;5051577;28;20041;-72
2023/08/01 08:36:52;;;;;;;7.45;2.33;;;16.70;99.90;;;;;;5052804;28;20071;-75
2023/08/01 08:39:18;;;;;;;10.90;2.70;;;16.90;99.90;;;;;;5051228;28;20052;-73
2023/08/01 08:41:51;;;;;;;9.95;2.70;;;17.00;99.90;;;;;;5052458;28;20041;-74
2023/08/01 08:44:20;;;;;;;8.68;2.70;;;17.10;99.90;;;;;;5052763;28;20053;-73
2023/08/01 08:46:50;;;;;;;10.65;2.67;;;17.20;99.90;;;;;;5055505;28;20041;-73
2023/08/01 08:49:19;;;;;;;8.27;3.03;;;17.40;99.90;;;;;;5056329;28;20064;-72
2023/08/01 08:51:46;;;;;;;11.55;2.78;;;17.40;99.90;;;;;;5056348;28;20049;-73
2023/08/01 08:54:12;;;;;;;13.70;2.90;;;17.40;99.90;;;;;;5054992;28;20049;-73
2023/08/01 08:56:40;;;;;;;9.82;2.53;;;17.50;99.90;;;;;;5056320;28;20048;-72
2023/08/01 08:59:10;;;;;;;14.35;3.10;;;17.50;99.90;;;;;;5038218;28;20045;-70
2023/08/01 09:01:36;;;;;;;8.88;2.85;;;17.50;99.90;;;;;;5038770;28;20067;-71
2023/08/01 09:04:03;;;;;;;13.77;2.75;;;17.40;99.90;;;;;;5055989;28;20048;-71
2023/08/01 09:06:32;;;;;;;12.07;2.40;;;17.30;99.90;;;;;;5055965;28;20052;-70
2023/08/01 09:09:10;;;;;;;11.68;3.05;;;17.20;99.90;;;;;;5055000;28;20088;-70
2023/08/01 09:11:48;;;;;;;11.98;2.63;;;17.00;99.90;;;;;;5056561;28;20045;-68
2023/08/01 09:14:15;;;;;;;13.13;2.90;;;16.70;99.90;;;;;;5055563;28;20102;-68
2023/08/01 09:16:42;;;;;;;12.98;2.67;;;16.20;99.90;;;;;;5054821;28;20049;-68
2023/08/01 09:19:08;;;;;;;15.38;3.72;;;16.00;99.90;;;;;;5055359;28;20481;-67
2023/08/01 09:21:38;;;;;;;16.52;3.40;;;15.90;99.90;;;;;;5055768;28;20079;-68
2023/08/01 09:24:20;;;;;;;24.70;4.00;;;15.80;99.90;;;;;;5055648;28;20143;-66
2023/08/01 09:26:48;;;;;;;13.38;3.28;;;15.60;99.90;;;;;;5056389;28;20090;-67
2023/08/01 09:29:16;;;;;;;18.08;3.80;;;15.60;99.90;;;;;;5054049;28;20052;-67
2023/08/01 09:31:43;;;;;;;9.50;3.03;;;15.60;99.90;;;;;;5055554;28;20400;-68
2023/08/01 09:34:29;;;;;;;12.77;2.90;;;15.60;99.90;;;;;;5054197;28;20053;-68
2023/08/01 09:36:59;;;;;;;13.70;3.38;;;15.50;99.90;;;;;;5054807;28;20139;-67
2023/08/01 09:39:25;;;;;;;11.77;3.60;;;15.40;99.90;;;;;;5055369;28;20076;-68
2023/08/01 09:41:58;;;;;;;12.70;3.30;;;15.40;99.90;;;;;;5055285;28;20158;-69
2023/08/01 09:44:27;;;;;;;13.23;3.60;;;15.40;99.90;;;;;;5056007;28;20052;-68
2023/08/01 09:47:00;;;;;;;12.60;3.90;;;15.40;99.90;;;;;;5055296;28;20114;-71
2023/08/01 09:49:30;;;;;;;13.45;3.85;;;15.50;99.90;;;;;;5055658;28;20059;-69
2023/08/01 09:51:57;;;;;;;13.25;3.60;;;15.50;99.90;;;;;;5054229;28;20419;-68
2023/08/01 09:54:23;;;;;;;14.48;4.10;;;15.50;99.90;;;;;;5054949;28;20049;-68
2023/08/01 09:56:52;;;;;;;18.57;4.43;;;15.60;99.90;;;;;;5055559;28;20347;-68
2023/08/01 09:59:24;;;;;;;16.20;4.13;;;15.70;99.90;;;;;;5054855;28;20052;-69
2023/08/01 10:01:51;;;;;;;13.85;4.22;;;15.80;99.90;;;;;;5054033;28;20051;-70
2023/08/01 10:04:40;;;;;;;15.23;4.32;;;15.80;99.90;;;;;;5037943;28;20037;-68
2023/08/01 10:07:11;;;;;;;18.15;4.70;;;16.00;99.90;;;;;;5055113;28;20056;-69
2023/08/01 10:09:37;;;;;;;15.10;4.45;;;16.00;99.90;;;;;;5053401;28;20048;-68
2023/08/01 10:12:05;;;;;;;14.50;4.60;;;15.90;99.90;;;;;;5054364;28;20144;-68
2023/08/01 10:14:32;;;;;;;16.17;4.50;;;16.00;99.90;;;;;;5054221;28;20182;-69
2023/08/01 10:16:59;;;;;;;11.00;3.42;;;16.00;99.90;;;;;;5053553;28;20088;-68
2023/08/01 10:19:26;;;;;;;11.32;2.88;;;16.00;99.90;;;;;;5054442;28;20059;-68
2023/08/01 10:21:53;;;;;;;11.50;3.03;;;16.10;99.90;;;;;;5054431;28;20393;-71
2023/08/01 10:24:19;;;;;;;;;;;16.10;99.90;;;;;;5054679;28;20431;-68
2023/08/01 10:26:48;;;;;;;9.35;1.55;;;16.10;99.90;;;;;;5053201;28;20403;-69
2023/08/01 10:29:14;;;;;;;7.07;2.00;;;16.10;99.90;;;;;;5053920;28;20061;-70
2023/08/01 10:31:53;;;;;;;9.80;2.00;;;16.10;99.90;;;;;;5053518;28;20053;-74
2023/08/01 10:34:21;;;;;;;8.40;1.58;;;16.20;99.90;;;;;;5054195;28;20072;-70
2023/08/01 10:36:58;;;;;;;7.20;2.00;;;16.20;99.90;;;;;;5054350;28;20041;-70
2023/08/01 10:39:26;;;;;;;8.73;1.92;;;16.20;99.90;;;;;;5052636;28;20071;-70
2023/08/01 10:41:59;;;;;;;8.02;2.17;;;16.30;99.90;;;;;;5036915;28;20442;-72
2023/08/01 10:44:25;;;;;;;5.47;1.60;;;16.20;99.90;;;;;;5054037;28;20461;-70
2023/08/01 10:46:53;;;;;;;6.83;1.63;;;16.40;99.90;;;;;;5054042;28;20067;-70
2023/08/01 10:49:42;;;;;;;8.93;1.58;;;16.50;99.90;;;;;;5053712;28;20319;-72
2023/08/01 10:52:28;;;;;;;7.68;1.60;;;16.70;99.90;;;;;;5054084;28;20049;-71
2023/08/01 10:55:03;;;;;;;7.75;2.38;;;16.80;99.90;;;;;;5052883;28;20080;-73
2023/08/01 10:57:30;;;;;;;7.78;1.90;;;17.00;99.90;;;;;;5052631;28;20084;-72
2023/08/01 10:59:57;;;;;;;9.27;2.65;;;17.00;99.90;;;;;;5054073;28;20056;-71
2023/08/01 11:02:23;;;;;;;;;;;17.00;99.90;;;;;;5054923;28;20060;-71
2023/08/01 11:05:04;;;;;;;8.32;2.22;;;16.80;99.90;;;;;;5053811;28;19921;-69
2023/08/01 11:07:30;;;;;;;12.65;1.92;;;16.60;99.90;;;;;;5052964;28;20477;-69
2023/08/01 11:10:07;;;;;;;8.33;1.70;;;16.40;99.90;;;;;;5053019;28;20463;-69
2023/08/01 11:12:36;;;;;;;;;;;16.30;99.90;;;;;;5054666;28;20045;-70
2023/08/01 11:15:04;;;;;;;7.65;1.10;;;16.10;99.90;;;;;;5053650;28;19927;-70
2023/08/01 11:17:31;;;;;;;4.40;1.00;;;16.10;99.90;;;;;;5035847;28;20401;-70
2023/08/01 11:20:09;;;;;;;7.15;1.25;;;16.00;99.90;;;;;;5052374;28;20049;-69
2023/08/01 11:22:36;;;;;;;9.00;1.48;;;16.00;99.90;;;;;;5053624;28;20041;-71
2023/08/01 11:25:03;;;;;;;5.13;1.58;;;16.20;99.90;;;;;;5052136;28;20072;-73
2023/08/01 11:27:29;;;;;;;6.30;1.40;;;16.20;99.90;;;;;;5052289;28;20072;-72
2023/08/01 11:29:56;;;;;;;7.25;1.60;;;16.30;99.90;;;;;;5035587;28;20072;-76
2023/08/01 11:32:32;;;;;;;5.80;1.45;;;16.50;99.90;;;;;;5053312;28;20060;-73
2023/08/01 11:34:58;;;;;;;8.38;1.33;;;16.60;99.90;;;;;;5053399;28;20572;-74
2023/08/01 11:37:26;;;;;;;8.10;1.20;;;16.70;99.90;;;;;;5053214;28;20137;-73
2023/08/01 11:39:52;;;;;;;5.55;1.20;;;16.70;99.90;;;;;;5053455;28;20056;-74
2023/08/01 11:42:18;;;;;;;7.18;1.38;;;16.80;99.90;;;;;;5035818;28;20052;-73
2023/08/01 11:44:44;;;;;;;6.60;1.42;;;17.10;99.90;;;;;;5053369;28;20094;-76
2023/08/01 11:47:14;;;;;;;7.00;1.47;;;17.20;99.90;;;;;;5053391;28;20053;-75
2023/08/01 11:49:46;;;;;;;8.25;2.03;;;17.30;99.90;;;;;;5053380;28;20415;-74
2023/08/01 11:52:28;;;;;;;8.40;1.35;;;17.80;99.90;;;;;;5052168;28;20051;-73
2023/08/01 11:54:54;;;;;;;10.48;1.70;;;17.90;99.90;;;;;;5054304;28;20044;-75
2023/08/01 11:57:23;;;;;;;12.00;1.98;;;17.90;99.90;;;;;;5053464;28;20045;-76
2023/08/01 11:59:50;;;;;;;10.20;1.73;;;17.90;99.90;;;;;;5054335;28;20402;-78
2023/08/01 12:02:27;;;;;;;8.82;2.03;;;17.70;99.90;;;;;;5051703;28;20045;-76
2023/08/01 12:04:54;;;;;;;10.57;1.90;;;17.40;99.90;;;;;;5053134;28;20053;-78
2023/08/01 12:07:20;;;;;;;7.47;1.80;;;17.50;99.90;;;;;;5051648;28;20049;-79
2023/08/01 12:09:59;;;;;;;13.98;1.77;;;17.50;99.90;;;;;;5053209;28;20190;-76
2023/08/01 12:12:28;;;;;;;6.90;1.95;;;17.30;99.90;;;;;;5052881;28;20056;-76
2023/08/01 12:14:55;;;;;;;9.30;2.35;;;17.30;99.90;;;;;;5051869;28;20045;-77
2023/08/01 12:17:21;;;;;;;10.10;1.85;;;17.20;99.90;;;;;;5053267;28;20056;-77
2023/08/01 12:19:47;;;;;;;11.57;1.80;;;17.00;99.90;;;;;;5036345;28;20129;-78
2023/08/01 12:22:14;;;;;;;7.50;1.77;;;16.90;99.90;;;;;;5055560;28;20041;-76
2023/08/01 12:24:40;;;;;;;;;;;16.80;99.90;;;;;;5056624;28;20362;-78
2023/08/01 12:27:08;;;;;;;11.05;2.58;;;17.00;99.90;;;;;;5089325;28;20390;-77
2023/08/01 12:29:34;;;;;;;8.48;1.88;;;17.30;99.90;;;;;;5056642;28;20143;-77
2023/08/01 12:31:59;;;;;;;13.70;2.20;;;17.50;99.90;;;;;;5056404;28;20125;-78
2023/08/01 12:34:25;;;;;;;10.13;2.00;;;17.50;99.90;;;;;;5056782;28;20477;-77
2023/08/01 12:36:51;;;;;;;9.10;1.90;;;17.80;99.90;;;;;;5055777;28;20045;-75
2023/08/01 12:39:17;;;;;;;14.17;2.03;;;18.00;99.90;;;;;;5057225;28;20080;-77
2023/08/01 12:41:43;;;;;;;7.53;1.75;;;18.00;99.90;;;;;;5055643;28;20400;-78